createdAt,value
2023-02-15T00:02:11.851Z,2.53
2023-02-15T00:04:56.952Z,3.80
2023-02-15T00:07:41.780Z,4.05
2023-02-15T00:13:11.129Z,3.25
2023-02-15T00:18:45.788Z,3.20
2023-02-15T00:21:32.362Z,3.20
2023-02-15T00:24:19.627Z,3.50
2023-02-15T00:27:05.595Z,3.60
2023-02-15T00:29:50.315Z,3.30
2023-02-15T00:32:35.197Z,3.70
2023-02-15T00:35:20.238Z,3.22
2023-02-15T00:38:04.922Z,3.72
2023-02-15T00:43:38.895Z,2.97
2023-02-15T00:46:23.906Z,3.85
2023-02-15T00:49:08.785Z,3.03
2023-02-15T00:54:39.185Z,1.77
2023-02-15T00:57:23.875Z,1.92
2023-02-15T01:00:09.333Z,1.60
2023-02-15T01:02:54.136Z,2.13
2023-02-15T01:05:39.615Z,1.58
2023-02-15T01:08:24.334Z,1.52
2023-02-15T01:13:58.314Z,1.42
2023-02-15T01:16:42.848Z,1.33
2023-02-15T01:19:27.795Z,1.05
2023-02-15T01:24:57.428Z,1.33
2023-02-15T01:27:43.307Z,1.48
2023-02-15T01:30:28.351Z,1.58
2023-02-15T01:33:17.899Z,1.10
2023-02-15T01:36:03.681Z,1.38
2023-02-15T01:38:50.452Z,1.23
2023-02-15T01:41:35.375Z,1.30
2023-02-15T01:47:50.560Z,1.50
2023-02-15T01:50:38.994Z,1.40
2023-02-15T01:53:32.655Z,1.40
2023-02-15T01:56:25.223Z,1.63
2023-02-15T01:59:15.256Z,1.63
2023-02-15T02:02:01.247Z,1.42
2023-02-15T02:04:48.996Z,1.90
2023-02-15T02:07:41.206Z,2.00
2023-02-15T02:10:26.522Z,2.00
2023-02-15T02:13:11.496Z,1.75
2023-02-15T02:16:08.206Z,2.03
2023-02-15T02:19:05.232Z,2.15
2023-02-15T02:22:02.980Z,1.92
2023-02-15T02:25:19.761Z,2.17
2023-02-15T02:28:24.200Z,1.90
2023-02-15T02:31:29.423Z,2.17
2023-02-15T02:34:30.503Z,1.75
2023-02-15T02:37:31.959Z,1.77
2023-02-15T02:40:25.654Z,2.10
2023-02-15T02:43:46.721Z,2.10
2023-02-15T02:46:40.025Z,1.70
2023-02-15T02:49:39.162Z,1.73
2023-02-15T02:52:42.629Z,1.42
2023-02-15T02:55:51.494Z,1.52
2023-02-15T02:58:45.093Z,1.65
2023-02-15T03:01:39.201Z,1.55
2023-02-15T03:04:29.350Z,1.13
2023-02-15T03:07:22.462Z,1.55
2023-02-15T03:10:08.770Z,1.17
2023-02-15T03:12:54.389Z,1.30
2023-02-15T03:15:59.802Z,1.20
2023-02-15T03:18:57.530Z,1.50
2023-02-15T03:22:09.812Z,1.20
2023-02-15T03:25:34.040Z,1.60
2023-02-15T03:28:26.075Z,1.00
2023-02-15T03:31:14.687Z,1.42
2023-02-15T03:34:07.177Z,1.38
2023-02-15T03:37:16.069Z,1.70
2023-02-15T03:40:48.876Z,1.35
2023-02-15T03:43:42.631Z,1.17
2023-02-15T03:47:09.031Z,1.25
2023-02-15T03:50:02.992Z,1.20
2023-02-15T03:52:47.863Z,1.10
2023-02-15T03:55:34.671Z,1.90
2023-02-15T03:58:37.677Z,1.73
2023-02-15T04:01:53.532Z,1.55
2023-02-15T04:04:42.356Z,1.30
2023-02-15T04:07:27.444Z,1.80
2023-02-15T04:13:15.870Z,1.15
2023-02-15T04:19:07.504Z,1.45
2023-02-15T04:22:10.966Z,1.50
2023-02-15T04:25:14.271Z,1.73
2023-02-15T04:27:59.359Z,1.40
2023-02-15T04:30:44.312Z,1.48
2023-02-15T04:33:29.384Z,1.67
2023-02-15T04:36:14.390Z,2.47
2023-02-15T04:38:59.108Z,2.75
2023-02-15T04:44:29.117Z,2.30
2023-02-15T04:47:14.161Z,2.00
2023-02-15T04:49:58.942Z,2.10
2023-02-15T04:55:28.230Z,1.65
2023-02-15T04:58:13.337Z,1.77
2023-02-15T05:03:43.024Z,1.75
2023-02-15T05:06:27.708Z,1.63
2023-02-15T05:09:12.930Z,1.55
2023-02-15T05:11:57.435Z,1.65
2023-02-15T05:14:41.955Z,1.95
2023-02-15T05:17:26.755Z,1.70
2023-02-15T05:20:11.874Z,1.77
2023-02-15T05:22:56.562Z,1.75
2023-02-15T05:28:45.659Z,2.30
2023-02-15T05:34:16.571Z,1.90
2023-02-15T05:37:01.608Z,2.50
2023-02-15T05:42:30.955Z,2.78
2023-02-15T05:48:00.889Z,2.95
2023-02-15T05:50:46.136Z,2.20
2023-02-15T05:53:34.485Z,1.88
2023-02-15T05:56:19.292Z,2.20
2023-02-15T05:59:04.458Z,2.22
2023-02-15T06:01:49.589Z,3.17
2023-02-15T06:07:19.322Z,2.33
2023-02-15T06:12:50.375Z,2.58
2023-02-15T06:18:27.458Z,1.90
2023-02-15T06:21:16.036Z,2.10
2023-02-15T06:24:00.932Z,2.22
2023-02-15T06:29:46.050Z,2.25
2023-02-15T06:32:35.032Z,2.40
2023-02-15T06:35:25.678Z,2.60
2023-02-15T06:38:11.467Z,2.70
2023-02-15T06:40:57.453Z,3.25
2023-02-15T06:43:42.726Z,3.15
2023-02-15T06:46:29.594Z,3.90
2023-02-15T06:49:15.097Z,3.40
2023-02-15T06:52:14.311Z,2.28
2023-02-15T06:55:01.485Z,3.00
2023-02-15T06:57:51.127Z,2.50
2023-02-15T07:00:49.301Z,1.95
2023-02-15T07:03:35.390Z,2.10
2023-02-15T07:06:23.813Z,2.08
2023-02-15T07:09:31.028Z,2.10
2023-02-15T07:12:34.697Z,1.60
2023-02-15T07:15:22.886Z,1.90
2023-02-15T07:18:11.925Z,2.20
2023-02-15T07:20:58.563Z,2.38
2023-02-15T07:23:45.871Z,1.92
2023-02-15T07:26:34.757Z,1.90
2023-02-15T07:29:23.565Z,1.85
2023-02-15T07:32:08.581Z,2.50
2023-02-15T07:34:54.636Z,1.85
2023-02-15T07:38:24.589Z,1.90
2023-02-15T07:41:12.445Z,1.50
2023-02-15T07:43:57.237Z,1.90
2023-02-15T07:46:44.865Z,1.70
2023-02-15T07:50:06.197Z,2.15
2023-02-15T07:52:51.379Z,2.42
2023-02-15T07:55:39.951Z,2.13
2023-02-15T07:58:54.203Z,1.90
2023-02-15T08:01:39.674Z,2.40
2023-02-15T08:04:25.843Z,1.83
2023-02-15T08:07:14.357Z,2.10
2023-02-15T08:10:47.189Z,2.03
2023-02-15T08:14:07.652Z,1.83
2023-02-15T08:16:56.264Z,1.98
2023-02-15T08:19:44.593Z,1.75
2023-02-15T08:22:33.997Z,1.77
2023-02-15T08:25:18.665Z,1.92
2023-02-15T08:28:07.125Z,2.13
2023-02-15T08:30:54.885Z,1.40
2023-02-15T08:33:42.235Z,1.83
2023-02-15T08:36:30.115Z,1.65
2023-02-15T08:39:15.924Z,1.80
2023-02-15T08:42:01.284Z,1.50
2023-02-15T08:44:48.142Z,1.88
2023-02-15T08:47:35.598Z,1.50
2023-02-15T08:50:20.201Z,1.90
2023-02-15T08:53:05.545Z,1.75
2023-02-15T08:55:57.977Z,2.05
2023-02-15T08:58:44.320Z,2.78
2023-02-15T09:01:31.888Z,2.10
2023-02-15T09:04:18.007Z,1.55
2023-02-15T09:07:04.869Z,1.80
2023-02-15T09:09:49.708Z,1.90
2023-02-15T09:12:37.867Z,1.70
2023-02-15T09:15:23.237Z,1.40
2023-02-15T09:18:09.455Z,1.30
2023-02-15T09:20:56.809Z,1.58
2023-02-15T09:24:08.795Z,1.80
2023-02-15T09:26:58.330Z,2.00
2023-02-15T09:29:45.887Z,1.95
2023-02-15T09:32:30.767Z,1.70
2023-02-15T09:35:16.027Z,1.80
2023-02-15T09:38:09.730Z,1.33
2023-02-15T09:41:21.597Z,1.75
2023-02-15T09:44:21.651Z,1.55
2023-02-15T09:47:28.702Z,2.10
2023-02-15T09:50:51.322Z,1.83
2023-02-15T09:54:16.321Z,1.92
2023-02-15T10:00:27.879Z,1.95
2023-02-15T10:03:43.765Z,1.90
2023-02-15T10:06:29.201Z,1.95
2023-02-15T10:09:50.459Z,2.08
2023-02-15T10:13:03.412Z,2.13
2023-02-15T10:16:31.872Z,2.35
2023-02-15T10:20:18.729Z,1.80
2023-02-15T10:23:40.002Z,1.92
2023-02-15T10:26:45.013Z,1.55
2023-02-15T10:29:31.974Z,1.55
2023-02-15T10:32:37.623Z,1.60
2023-02-15T10:35:52.386Z,1.48
2023-02-15T10:39:01.114Z,2.47
2023-02-15T10:42:10.753Z,1.63
2023-02-15T10:45:19.571Z,3.40
2023-02-15T10:48:30.525Z,2.22
2023-02-15T10:51:37.460Z,2.13
2023-02-15T10:54:46.809Z,2.15
2023-02-15T10:57:41.056Z,2.47
2023-02-15T11:01:11.561Z,2.42
2023-02-15T11:04:54.708Z,2.78
2023-02-15T11:07:44.903Z,2.50
2023-02-15T11:10:32.517Z,1.70
2023-02-15T11:13:28.569Z,3.38
2023-02-15T11:16:46.197Z,3.90
2023-02-15T11:20:10.146Z,3.05
2023-02-15T11:22:56.198Z,2.80
2023-02-15T11:25:42.850Z,2.60
2023-02-15T11:28:35.698Z,3.40
2023-02-15T11:31:36.002Z,3.53
2023-02-15T11:34:39.903Z,2.13
2023-02-15T11:37:34.321Z,3.50
2023-02-15T11:41:12.666Z,2.88
2023-02-15T11:44:07.296Z,3.28
2023-02-15T11:46:53.272Z,2.55
2023-02-15T11:49:39.084Z,2.50
2023-02-15T11:52:24.070Z,1.92
2023-02-15T11:55:20.788Z,2.40
2023-02-15T11:58:36.375Z,2.17
2023-02-15T12:01:35.720Z,2.30
2023-02-15T12:04:45.498Z,2.30
2023-02-15T12:07:37.211Z,1.95
2023-02-15T12:10:34.337Z,4.63
2023-02-15T12:13:20.965Z,3.90
2023-02-15T12:16:12.513Z,2.85
2023-02-15T12:19:01.605Z,2.50
2023-02-15T12:21:52.994Z,2.72
2023-02-15T12:24:47.222Z,2.42
2023-02-15T12:27:35.009Z,2.03
2023-02-15T12:30:32.209Z,2.20
2023-02-15T12:33:28.977Z,2.00
2023-02-15T12:36:54.990Z,2.50
2023-02-15T12:39:52.318Z,3.28
2023-02-15T12:42:46.221Z,2.10
2023-02-15T12:45:33.576Z,1.90
2023-02-15T12:48:20.486Z,2.90
2023-02-15T12:51:14.133Z,3.10
2023-02-15T12:54:16.453Z,2.80
2023-02-15T12:57:34.677Z,2.00
2023-02-15T13:00:20.111Z,2.90
2023-02-15T13:03:05.713Z,3.17
2023-02-15T13:05:57.523Z,2.50
2023-02-15T13:08:51.369Z,2.78
2023-02-15T13:11:37.853Z,2.40
2023-02-15T13:14:31.618Z,2.35
2023-02-15T13:17:17.786Z,3.53
2023-02-15T13:20:10.649Z,3.42
2023-02-15T13:23:17.944Z,5.05
2023-02-15T13:26:05.594Z,4.60
2023-02-15T13:28:54.956Z,3.63
2023-02-15T13:31:42.061Z,3.90
2023-02-15T13:34:34.008Z,3.42
2023-02-15T13:37:21.604Z,2.67
2023-02-15T13:40:14.942Z,3.25
2023-02-15T13:43:25.447Z,3.22
2023-02-15T13:46:46.163Z,3.70
2023-02-15T13:49:48.045Z,2.80
2023-02-15T13:52:42.799Z,3.80
2023-02-15T13:55:36.801Z,4.28
2023-02-15T13:58:32.528Z,4.13
2023-02-15T14:01:42.151Z,3.47
2023-02-15T14:04:53.600Z,3.58
2023-02-15T14:07:53.988Z,4.43
2023-02-15T14:11:10.670Z,4.95
2023-02-15T14:14:26.391Z,3.50
2023-02-15T14:17:14.469Z,3.78
2023-02-15T14:20:26.631Z,5.35
2023-02-15T14:23:31.391Z,3.75
2023-02-15T14:26:36.717Z,5.30
2023-02-15T14:29:40.644Z,4.93
2023-02-15T14:32:43.902Z,5.90
2023-02-15T14:38:32.483Z,5.95
2023-02-15T14:41:49.674Z,6.30
2023-02-15T14:44:44.659Z,5.72
2023-02-15T14:47:37.534Z,4.78
2023-02-15T14:50:32.023Z,5.35
2023-02-15T14:53:36.344Z,5.00
2023-02-15T14:56:22.781Z,5.03
2023-02-15T14:59:18.705Z,5.15
2023-02-15T15:02:06.456Z,5.07
2023-02-15T15:05:09.045Z,4.90
2023-02-15T15:07:56.533Z,4.82
2023-02-15T15:10:44.711Z,4.70
2023-02-15T15:13:32.202Z,6.47
2023-02-15T15:16:51.144Z,6.78
2023-02-15T15:19:51.805Z,7.45
2023-02-15T15:22:37.133Z,6.78
2023-02-15T15:28:32.927Z,7.72
2023-02-15T15:34:05.979Z,8.27
2023-02-15T15:37:07.998Z,11.48
2023-02-15T15:40:02.181Z,12.15
2023-02-15T15:43:08.905Z,11.27
2023-02-15T15:46:38.206Z,11.00
2023-02-15T15:49:28.530Z,10.23
2023-02-15T15:52:16.901Z,11.43
2023-02-15T15:55:14.465Z,7.68
2023-02-15T15:58:05.062Z,7.53
2023-02-15T16:01:18.629Z,7.40
2023-02-15T16:04:03.589Z,7.22
2023-02-15T16:06:48.537Z,7.38
2023-02-15T16:09:33.504Z,6.10
2023-02-15T16:12:21.813Z,5.88
2023-02-15T16:15:24.354Z,5.32
2023-02-15T16:18:15.684Z,5.10
2023-02-15T16:21:01.895Z,4.88
2023-02-15T16:24:18.896Z,5.13
2023-02-15T16:27:31.432Z,4.82
2023-02-15T16:30:22.669Z,4.70
2023-02-15T16:33:11.080Z,4.40
2023-02-15T16:35:58.796Z,3.97
2023-02-15T16:38:43.399Z,3.72
2023-02-15T16:41:29.738Z,4.97
2023-02-15T16:44:20.996Z,8.23
2023-02-15T16:47:15.272Z,8.80
2023-02-15T16:50:03.054Z,9.00
2023-02-15T16:52:48.345Z,10.52
2023-02-15T16:55:41.733Z,8.75
2023-02-15T16:58:36.836Z,9.23
2023-02-15T17:01:27.228Z,10.55
2023-02-15T17:04:35.012Z,10.40
2023-02-15T17:07:21.021Z,8.50
2023-02-15T17:10:27.223Z,8.38
2023-02-15T17:13:16.922Z,8.55
2023-02-15T17:16:02.455Z,8.77
2023-02-15T17:18:47.933Z,6.93
2023-02-15T17:21:38.131Z,7.53
2023-02-15T17:24:33.770Z,7.88
2023-02-15T17:27:29.052Z,7.30
2023-02-15T17:30:22.970Z,8.00
2023-02-15T17:33:34.812Z,7.72
2023-02-15T17:36:23.020Z,7.22
2023-02-15T17:39:21.157Z,6.05
2023-02-15T17:42:06.139Z,7.07
2023-02-15T17:44:51.160Z,8.00
2023-02-15T17:47:36.414Z,6.60
2023-02-15T17:53:11.358Z,6.05
2023-02-15T17:55:56.603Z,7.10
2023-02-15T17:58:41.122Z,7.40
2023-02-15T18:04:50.452Z,6.10
2023-02-15T18:07:53.867Z,6.47
2023-02-15T18:10:57.400Z,7.38
2023-02-15T18:13:42.229Z,7.43
2023-02-15T18:16:30.715Z,8.35
2023-02-15T18:19:19.011Z,7.20
2023-02-15T18:22:10.917Z,7.53
2023-02-15T18:24:55.615Z,6.80
2023-02-15T18:30:26.275Z,6.93
2023-02-15T18:33:40.749Z,7.32
2023-02-15T18:36:29.014Z,8.02
2023-02-15T18:39:55.141Z,8.45
2023-02-15T18:42:46.528Z,8.95
2023-02-15T18:45:34.543Z,10.60
2023-02-15T18:48:19.997Z,11.25
2023-02-15T18:53:52.495Z,10.10
2023-02-15T18:56:37.634Z,9.85
2023-02-15T18:59:23.889Z,10.27
2023-02-15T19:02:17.601Z,9.30
2023-02-15T19:05:02.373Z,9.05
2023-02-15T19:07:48.273Z,8.23
2023-02-15T19:10:33.659Z,8.35
2023-02-15T19:13:18.630Z,8.63
2023-02-15T19:16:06.021Z,8.98
2023-02-15T19:18:50.677Z,9.35
2023-02-15T19:21:35.838Z,8.35
2023-02-15T19:24:25.345Z,8.77
2023-02-15T19:27:39.634Z,8.43
2023-02-15T19:30:29.141Z,7.30
2023-02-15T19:33:19.524Z,8.82
2023-02-15T19:36:06.522Z,9.10
2023-02-15T19:38:54.173Z,7.85
2023-02-15T19:41:40.372Z,9.35
2023-02-15T19:44:25.001Z,9.13
2023-02-15T19:47:13.530Z,10.52
2023-02-15T19:50:02.840Z,9.73
2023-02-15T19:52:47.852Z,11.23
2023-02-15T19:55:34.600Z,12.07
2023-02-15T19:58:20.398Z,11.95
2023-02-15T20:01:05.648Z,12.73
2023-02-15T20:03:51.820Z,12.38
2023-02-15T20:06:36.475Z,12.65
2023-02-15T20:15:27.260Z,11.20
2023-02-15T20:18:12.945Z,10.57
2023-02-15T20:20:57.621Z,11.80
2023-02-15T20:26:30.691Z,10.52
2023-02-15T20:29:18.274Z,11.38
2023-02-15T20:32:03.412Z,12.00
2023-02-15T20:34:48.469Z,11.63
2023-02-15T20:37:34.245Z,11.02
2023-02-15T20:40:22.674Z,12.07
2023-02-15T20:43:14.468Z,11.30
2023-02-15T20:45:59.889Z,10.73
2023-02-15T20:48:44.889Z,10.75
2023-02-15T20:54:17.122Z,11.63
2023-02-15T20:57:05.330Z,12.85
2023-02-15T20:59:50.176Z,11.68
2023-02-15T21:02:36.164Z,9.68
2023-02-15T21:05:25.777Z,10.68
2023-02-15T21:08:16.872Z,10.90
2023-02-15T21:13:48.366Z,10.25
2023-02-15T21:16:33.359Z,11.27
2023-02-15T21:19:20.883Z,9.98
2023-02-15T21:22:05.603Z,11.52
2023-02-15T21:24:54.673Z,11.27
2023-02-15T21:27:39.541Z,11.13
2023-02-15T21:30:25.165Z,10.90
2023-02-15T21:33:10.275Z,11.95
2023-02-15T21:35:57.450Z,11.98
2023-02-15T21:38:42.613Z,11.43
2023-02-15T21:41:46.898Z,10.70
2023-02-15T21:44:50.705Z,10.95
2023-02-15T21:50:54.665Z,11.10
2023-02-15T21:53:42.593Z,13.18
2023-02-15T21:56:27.521Z,14.02
2023-02-15T22:01:58.601Z,15.25
2023-02-15T22:04:43.592Z,17.52
2023-02-15T22:07:28.602Z,17.65
2023-02-15T22:13:03.094Z,15.18
2023-02-15T22:15:48.092Z,15.73
2023-02-15T22:18:34.262Z,16.02
2023-02-15T22:21:20.239Z,14.18
2023-02-15T22:24:05.206Z,12.02
2023-02-15T22:29:35.219Z,11.88
2023-02-15T22:32:25.890Z,11.35
2023-02-15T22:35:21.734Z,12.60
2023-02-15T22:38:06.645Z,10.82
2023-02-15T22:40:54.860Z,10.80
2023-02-15T22:43:42.797Z,10.18
2023-02-15T22:46:27.418Z,11.32
2023-02-15T22:49:13.271Z,11.77
2023-02-15T22:51:58.258Z,11.60
2023-02-15T22:57:30.790Z,11.48
2023-02-15T23:00:18.616Z,12.82
2023-02-15T23:03:13.883Z,12.63
2023-02-15T23:05:58.766Z,13.27
2023-02-15T23:08:44.224Z,14.05
2023-02-15T23:14:27.089Z,13.25
2023-02-15T23:17:11.825Z,13.77
2023-02-15T23:22:43.404Z,13.68
2023-02-15T23:25:28.134Z,12.35
2023-02-15T23:31:27.729Z,14.32
2023-02-15T23:34:28.696Z,15.70
2023-02-15T23:37:14.877Z,15.65
2023-02-15T23:40:18.289Z,16.15
2023-02-15T23:43:04.426Z,14.70
2023-02-15T23:45:49.214Z,14.88
2023-02-15T23:48:37.667Z,14.20
2023-02-15T23:51:28.619Z,14.70
2023-02-15T23:54:15.189Z,13.60
2023-02-15T23:57:01.475Z,13.15
2023-02-15T23:59:46.140Z,12.18
